AUA99HC LOWW-EKCH
Flight info
| Callsign | AUA99HC |
|---|---|
| Flight time | 1h 23m |
| Altitude | 38000 |
| Route | LANUX6B/16 LANUX DCT VLM DCT HDO DCT BAKDO DCT KOSEB T298 MONAK |
| Aircraft | A320/M-SDE3FGHIRWY/LB1 |
Departure
| Time | 2026-05-04 18:52 |
|---|---|
| Airport | Vienna International Airport (LOWW) |
Arrival
| Time | 2026-05-04 20:16 |
|---|---|
| Airport | Copenhagen Kastrup Airport (EKCH) |
| Time | Latitude | Longitude | Altitude | Speed | Heading |
|---|---|---|---|---|---|
| 2026-05-04 18:05 | 48.11599 | 16.56650 | 615 ft | 0 kts | 206° |
| 2026-05-04 18:47 | 48.11583 | 16.56638 | 615 ft | 11 kts | 206° |
| 2026-05-04 18:48 | 48.11476 | 16.56734 | 615 ft | 22 kts | 116° |
| 2026-05-04 18:48 | 48.11409 | 16.56937 | 615 ft | 22 kts | 117° |
| 2026-05-04 18:48 | 48.11341 | 16.57140 | 615 ft | 23 kts | 109° |
| 2026-05-04 18:48 | 48.11270 | 16.57362 | 615 ft | 25 kts | 116° |
| 2026-05-04 18:49 | 48.11191 | 16.57606 | 615 ft | 25 kts | 115° |
| 2026-05-04 18:49 | 48.11127 | 16.57806 | 615 ft | 20 kts | 114° |
| 2026-05-04 18:49 | 48.11091 | 16.57920 | 615 ft | 5 kts | 116° |
| 2026-05-04 18:49 | 48.11078 | 16.57959 | 615 ft | 0 kts | 116° |
| 2026-05-04 18:50 | 48.11058 | 16.58020 | 615 ft | 23 kts | 116° |
| 2026-05-04 18:50 | 48.10971 | 16.58219 | 615 ft | 21 kts | 140° |
| 2026-05-04 18:50 | 48.10923 | 16.58263 | 615 ft | 0 kts | 162° |
| 2026-05-04 18:51 | 48.10842 | 16.58299 | 615 ft | 41 kts | 163° |
| 2026-05-04 18:51 | 48.10329 | 16.58518 | 615 ft | 109 kts | 164° |
| 2026-05-04 18:52 | 48.09461 | 16.58871 | 760 ft | 131 kts | 164° |
| 2026-05-04 18:52 | 48.08588 | 16.59205 | 1125 ft | 132 kts | 162° |
| 2026-05-04 18:52 | 48.07690 | 16.59596 | 1473 ft | 134 kts | 161° |
| 2026-05-04 18:52 | 48.06843 | 16.60047 | 1842 ft | 136 kts | 154° |
| 2026-05-04 18:53 | 48.06008 | 16.60827 | 2231 ft | 141 kts | 140° |
| 2026-05-04 18:53 | 48.05306 | 16.61987 | 2459 ft | 168 kts | 126° |
| 2026-05-04 18:53 | 48.04815 | 16.63737 | 2889 ft | 191 kts | 105° |
| 2026-05-04 18:53 | 48.04830 | 16.65786 | 3501 ft | 205 kts | 81° |
| 2026-05-04 18:54 | 48.05480 | 16.67737 | 4175 ft | 218 kts | 54° |
| 2026-05-04 18:54 | 48.06601 | 16.69415 | 4635 ft | 240 kts | 39° |
| 2026-05-04 18:54 | 48.08108 | 16.70831 | 4926 ft | 267 kts | 33° |
| 2026-05-04 18:54 | 48.09752 | 16.72304 | 4985 ft | 280 kts | 33° |
| 2026-05-04 18:55 | 48.11430 | 16.73816 | 4999 ft | 283 kts | 33° |
| 2026-05-04 18:55 | 48.14827 | 16.76891 | 6066 ft | 290 kts | 33° |
| 2026-05-04 18:55 | 48.16576 | 16.78484 | 7110 ft | 294 kts | 32° |
| 2026-05-04 18:56 | 48.18419 | 16.79895 | 8099 ft | 299 kts | 19° |
| 2026-05-04 18:56 | 48.20451 | 16.80369 | 9030 ft | 302 kts | 358° |
| 2026-05-04 18:56 | 48.22523 | 16.79787 | 9923 ft | 304 kts | 338° |
| 2026-05-04 18:56 | 48.24399 | 16.78176 | 10586 ft | 315 kts | 318° |
| 2026-05-04 18:57 | 48.25873 | 16.75665 | 11029 ft | 329 kts | 299° |
| 2026-05-04 18:57 | 48.26780 | 16.72534 | 11734 ft | 335 kts | 288° |
| 2026-05-04 18:57 | 48.27995 | 16.69421 | 12701 ft | 341 kts | 308° |
| 2026-05-04 18:57 | 48.29530 | 16.66783 | 13522 ft | 346 kts | 308° |
| 2026-05-04 18:58 | 48.31118 | 16.64016 | 14319 ft | 351 kts | 308° |
| 2026-05-04 18:58 | 48.32727 | 16.61209 | 15096 ft | 355 kts | 308° |
| 2026-05-04 18:58 | 48.34347 | 16.58380 | 15852 ft | 359 kts | 308° |
| 2026-05-04 18:58 | 48.35995 | 16.55504 | 16589 ft | 362 kts | 308° |
| 2026-05-04 18:59 | 48.37638 | 16.52636 | 17287 ft | 366 kts | 308° |
| 2026-05-04 18:59 | 48.39311 | 16.49709 | 17989 ft | 369 kts | 308° |
| 2026-05-04 18:59 | 48.40992 | 16.46766 | 18668 ft | 372 kts | 308° |
| 2026-05-04 18:59 | 48.42685 | 16.43799 | 19330 ft | 375 kts | 309° |
| 2026-05-04 19:00 | 48.44319 | 16.40932 | 19969 ft | 377 kts | 309° |
| 2026-05-04 19:00 | 48.46026 | 16.37936 | 20614 ft | 379 kts | 309° |
| 2026-05-04 19:00 | 48.47839 | 16.34749 | 21268 ft | 382 kts | 309° |
| 2026-05-04 19:00 | 48.49484 | 16.31855 | 21834 ft | 384 kts | 309° |
| 2026-05-04 19:01 | 48.51464 | 16.29173 | 22434 ft | 388 kts | 326° |
| 2026-05-04 19:01 | 48.53904 | 16.27320 | 23056 ft | 390 kts | 334° |
| 2026-05-04 19:01 | 48.56408 | 16.25615 | 23410 ft | 397 kts | 333° |
| 2026-05-04 19:01 | 48.58864 | 16.23827 | 23509 ft | 395 kts | 332° |
| 2026-05-04 19:02 | 48.61330 | 16.21984 | 23610 ft | 395 kts | 332° |
| 2026-05-04 19:02 | 48.63809 | 16.20118 | 23741 ft | 397 kts | 332° |
| 2026-05-04 19:02 | 48.66277 | 16.18251 | 24235 ft | 399 kts | 332° |
| 2026-05-04 19:02 | 48.68762 | 16.16363 | 24739 ft | 401 kts | 332° |
| 2026-05-04 19:03 | 48.71254 | 16.14466 | 25213 ft | 403 kts | 332° |
| 2026-05-04 19:03 | 48.73759 | 16.12554 | 25665 ft | 405 kts | 332° |
| 2026-05-04 19:03 | 48.76297 | 16.10615 | 26107 ft | 407 kts | 331° |
| 2026-05-04 19:03 | 48.78840 | 16.08668 | 26532 ft | 409 kts | 331° |
| 2026-05-04 19:04 | 48.81277 | 16.06799 | 26921 ft | 412 kts | 331° |
| 2026-05-04 19:04 | 48.83940 | 16.04754 | 27330 ft | 414 kts | 331° |
| 2026-05-04 19:04 | 48.86510 | 16.02781 | 27715 ft | 416 kts | 331° |
| 2026-05-04 19:04 | 48.89097 | 16.00790 | 28084 ft | 418 kts | 331° |
| 2026-05-04 19:05 | 48.91725 | 15.98767 | 28442 ft | 420 kts | 331° |
| 2026-05-04 19:05 | 48.94303 | 15.96783 | 28773 ft | 422 kts | 331° |
| 2026-05-04 19:05 | 48.96954 | 15.94738 | 29109 ft | 424 kts | 331° |
| 2026-05-04 19:05 | 48.99597 | 15.92695 | 29446 ft | 426 kts | 331° |
| 2026-05-04 19:06 | 49.02230 | 15.90659 | 29770 ft | 428 kts | 331° |
| 2026-05-04 19:06 | 49.04898 | 15.88593 | 30096 ft | 430 kts | 331° |
| 2026-05-04 19:06 | 49.07559 | 15.86532 | 30413 ft | 431 kts | 331° |
| 2026-05-04 19:06 | 49.10252 | 15.84441 | 30546 ft | 438 kts | 330° |
| 2026-05-04 19:07 | 49.15759 | 15.80135 | 30769 ft | 452 kts | 330° |
| 2026-05-04 19:07 | 49.18573 | 15.77928 | 31003 ft | 455 kts | 330° |
| 2026-05-04 19:07 | 49.21444 | 15.75679 | 31299 ft | 458 kts | 330° |
| 2026-05-04 19:08 | 49.24241 | 15.73491 | 31605 ft | 458 kts | 330° |
| 2026-05-04 19:08 | 49.27081 | 15.71273 | 31918 ft | 459 kts | 330° |
| 2026-05-04 19:08 | 49.29960 | 15.69026 | 32234 ft | 459 kts | 330° |
| 2026-05-04 19:08 | 49.32799 | 15.66812 | 32546 ft | 459 kts | 330° |
| 2026-05-04 19:09 | 49.35622 | 15.64612 | 32799 ft | 458 kts | 330° |
| 2026-05-04 19:09 | 49.38465 | 15.62397 | 33050 ft | 456 kts | 330° |
| 2026-05-04 19:09 | 49.41284 | 15.60202 | 33299 ft | 455 kts | 330° |
| 2026-05-04 19:09 | 49.44110 | 15.57989 | 33550 ft | 454 kts | 330° |
| 2026-05-04 19:10 | 49.46934 | 15.55768 | 33802 ft | 453 kts | 330° |
| 2026-05-04 19:10 | 49.49749 | 15.53552 | 34052 ft | 454 kts | 330° |
| 2026-05-04 19:10 | 49.52533 | 15.51359 | 34300 ft | 453 kts | 330° |
| 2026-05-04 19:10 | 49.55341 | 15.49146 | 34551 ft | 452 kts | 330° |
| 2026-05-04 19:11 | 49.58159 | 15.46923 | 34803 ft | 452 kts | 330° |
| 2026-05-04 19:11 | 49.60950 | 15.44719 | 35052 ft | 451 kts | 330° |
| 2026-05-04 19:11 | 49.63655 | 15.42582 | 35295 ft | 450 kts | 330° |
| 2026-05-04 19:11 | 49.66501 | 15.40330 | 35550 ft | 450 kts | 330° |
| 2026-05-04 19:12 | 49.69305 | 15.38107 | 35802 ft | 449 kts | 329° |
| 2026-05-04 19:12 | 49.74881 | 15.33675 | 36305 ft | 448 kts | 329° |
| 2026-05-04 19:12 | 49.77643 | 15.31476 | 36554 ft | 448 kts | 329° |
| 2026-05-04 19:13 | 49.80396 | 15.29281 | 36803 ft | 447 kts | 329° |
| 2026-05-04 19:13 | 49.83149 | 15.27084 | 37030 ft | 447 kts | 329° |
| 2026-05-04 19:13 | 49.85914 | 15.24873 | 37156 ft | 447 kts | 329° |
| 2026-05-04 19:13 | 49.88671 | 15.22666 | 37281 ft | 446 kts | 329° |
| 2026-05-04 19:14 | 49.91445 | 15.20443 | 37407 ft | 446 kts | 329° |
| 2026-05-04 19:14 | 49.94179 | 15.18248 | 37531 ft | 445 kts | 329° |
| 2026-05-04 19:14 | 49.96904 | 15.16060 | 37655 ft | 445 kts | 329° |
| 2026-05-04 19:14 | 49.99695 | 15.13815 | 37782 ft | 445 kts | 329° |
| 2026-05-04 19:15 | 50.02462 | 15.11585 | 37889 ft | 445 kts | 329° |
| 2026-05-04 19:15 | 50.07936 | 15.07165 | 37931 ft | 444 kts | 329° |
| 2026-05-04 19:16 | 50.13433 | 15.02713 | 37934 ft | 444 kts | 329° |
| 2026-05-04 19:16 | 50.18927 | 14.98250 | 37935 ft | 444 kts | 329° |
| 2026-05-04 19:17 | 50.24343 | 14.93843 | 37935 ft | 444 kts | 329° |
| 2026-05-04 19:17 | 50.29852 | 14.89346 | 37935 ft | 444 kts | 329° |
| 2026-05-04 19:18 | 50.35362 | 14.84833 | 37935 ft | 445 kts | 328° |
| 2026-05-04 19:18 | 50.39927 | 14.81084 | 37936 ft | 445 kts | 328° |
| 2026-05-04 19:19 | 50.45407 | 14.76577 | 37936 ft | 445 kts | 328° |
| 2026-05-04 19:19 | 50.50886 | 14.72067 | 37937 ft | 445 kts | 328° |
| 2026-05-04 19:20 | 50.56375 | 14.67529 | 37939 ft | 445 kts | 328° |
| 2026-05-04 19:20 | 50.61855 | 14.62986 | 37940 ft | 445 kts | 328° |
| 2026-05-04 19:21 | 50.67359 | 14.58413 | 37942 ft | 445 kts | 328° |
| 2026-05-04 19:21 | 50.72844 | 14.53884 | 37940 ft | 447 kts | 332° |
| 2026-05-04 19:21 | 50.75804 | 14.52503 | 37951 ft | 453 kts | 344° |
| 2026-05-04 19:22 | 50.78929 | 14.51440 | 37947 ft | 453 kts | 343° |
| 2026-05-04 19:22 | 50.85015 | 14.48927 | 37947 ft | 451 kts | 339° |
| 2026-05-04 19:23 | 50.90974 | 14.45872 | 37949 ft | 450 kts | 338° |
| 2026-05-04 19:23 | 50.96890 | 14.42860 | 37951 ft | 450 kts | 338° |
| 2026-05-04 19:24 | 51.02903 | 14.39835 | 37953 ft | 450 kts | 338° |
| 2026-05-04 19:24 | 51.08901 | 14.36819 | 37954 ft | 450 kts | 338° |
| 2026-05-04 19:25 | 51.14846 | 14.33825 | 37955 ft | 450 kts | 338° |
| 2026-05-04 19:25 | 51.20833 | 14.30803 | 37956 ft | 450 kts | 338° |
| 2026-05-04 19:26 | 51.26789 | 14.27790 | 37956 ft | 450 kts | 338° |
| 2026-05-04 19:26 | 51.32781 | 14.24751 | 37955 ft | 450 kts | 338° |
| 2026-05-04 19:27 | 51.38741 | 14.21717 | 37955 ft | 451 kts | 338° |
| 2026-05-04 19:27 | 51.44705 | 14.18670 | 37953 ft | 451 kts | 338° |
| 2026-05-04 19:28 | 51.50717 | 14.15593 | 37952 ft | 450 kts | 338° |
| 2026-05-04 19:28 | 51.56576 | 14.12587 | 37950 ft | 450 kts | 338° |
| 2026-05-04 19:29 | 51.62617 | 14.09478 | 37948 ft | 450 kts | 338° |
| 2026-05-04 19:29 | 51.68595 | 14.06392 | 37951 ft | 450 kts | 338° |
| 2026-05-04 19:30 | 51.74397 | 14.03387 | 37961 ft | 451 kts | 338° |
| 2026-05-04 19:30 | 51.80385 | 14.00286 | 37963 ft | 450 kts | 338° |
| 2026-05-04 19:31 | 51.86378 | 13.97182 | 37963 ft | 450 kts | 338° |
| 2026-05-04 19:31 | 51.92335 | 13.94056 | 37956 ft | 450 kts | 338° |
| 2026-05-04 19:32 | 51.98325 | 13.90913 | 37951 ft | 451 kts | 338° |
| 2026-05-04 19:32 | 52.04265 | 13.87789 | 37953 ft | 451 kts | 338° |
| 2026-05-04 19:33 | 52.10250 | 13.84635 | 37955 ft | 451 kts | 337° |
| 2026-05-04 19:33 | 52.16226 | 13.81481 | 37957 ft | 451 kts | 337° |
| 2026-05-04 19:34 | 52.22190 | 13.78326 | 37959 ft | 451 kts | 337° |
| 2026-05-04 19:34 | 52.28160 | 13.75156 | 37961 ft | 451 kts | 337° |
| 2026-05-04 19:35 | 52.34136 | 13.71973 | 37962 ft | 451 kts | 337° |
| 2026-05-04 19:35 | 52.40092 | 13.68791 | 37963 ft | 451 kts | 337° |
| 2026-05-04 19:36 | 52.46079 | 13.65585 | 37963 ft | 451 kts | 337° |
| 2026-05-04 19:36 | 52.52018 | 13.62396 | 37964 ft | 451 kts | 337° |
| 2026-05-04 19:37 | 52.58004 | 13.59170 | 37964 ft | 451 kts | 337° |
| 2026-05-04 19:37 | 52.63966 | 13.55946 | 37966 ft | 452 kts | 337° |
| 2026-05-04 19:38 | 52.69943 | 13.52706 | 37966 ft | 452 kts | 337° |
| 2026-05-04 19:38 | 52.75899 | 13.49471 | 37964 ft | 452 kts | 337° |
| 2026-05-04 19:39 | 52.81894 | 13.46206 | 37960 ft | 451 kts | 337° |
| 2026-05-04 19:39 | 52.87809 | 13.42978 | 37959 ft | 451 kts | 337° |
| 2026-05-04 19:40 | 52.93797 | 13.39693 | 37959 ft | 451 kts | 337° |
| 2026-05-04 19:40 | 52.99771 | 13.36407 | 37959 ft | 451 kts | 337° |
| 2026-05-04 19:41 | 53.05703 | 13.33135 | 37959 ft | 452 kts | 337° |
| 2026-05-04 19:41 | 53.11705 | 13.29814 | 37959 ft | 452 kts | 337° |
| 2026-05-04 19:42 | 53.17632 | 13.26533 | 37960 ft | 451 kts | 337° |
| 2026-05-04 19:42 | 53.23596 | 13.23224 | 37960 ft | 451 kts | 336° |
| 2026-05-04 19:43 | 53.29544 | 13.19904 | 37960 ft | 451 kts | 336° |
| 2026-05-04 19:43 | 53.35514 | 13.16562 | 37960 ft | 451 kts | 336° |
| 2026-05-04 19:44 | 53.41444 | 13.13234 | 37963 ft | 451 kts | 336° |
| 2026-05-04 19:44 | 53.47411 | 13.09874 | 37968 ft | 451 kts | 336° |
| 2026-05-04 19:45 | 53.53296 | 13.06548 | 37753 ft | 450 kts | 336° |
| 2026-05-04 19:45 | 53.56334 | 13.04843 | 37608 ft | 443 kts | 337° |
| 2026-05-04 19:45 | 53.59227 | 13.03280 | 37415 ft | 442 kts | 337° |
| 2026-05-04 19:45 | 53.62166 | 13.01693 | 37163 ft | 441 kts | 336° |
| 2026-05-04 19:46 | 53.65056 | 13.00104 | 36914 ft | 438 kts | 336° |
| 2026-05-04 19:46 | 53.67942 | 12.98521 | 36663 ft | 434 kts | 336° |
| 2026-05-04 19:46 | 53.70808 | 12.96963 | 36412 ft | 431 kts | 336° |
| 2026-05-04 19:46 | 53.73687 | 12.95392 | 36158 ft | 429 kts | 336° |
| 2026-05-04 19:47 | 53.76520 | 12.93832 | 35712 ft | 429 kts | 335° |
| 2026-05-04 19:47 | 53.79309 | 12.92277 | 35185 ft | 426 kts | 335° |
| 2026-05-04 19:47 | 53.82225 | 12.91233 | 34446 ft | 439 kts | 350° |
| 2026-05-04 19:47 | 53.85371 | 12.91413 | 33331 ft | 453 kts | 354° |
| 2026-05-04 19:48 | 53.88550 | 12.91419 | 32253 ft | 459 kts | 352° |
| 2026-05-04 19:48 | 53.91733 | 12.91158 | 31424 ft | 455 kts | 348° |
| 2026-05-04 19:48 | 53.94865 | 12.90607 | 30763 ft | 450 kts | 346° |
| 2026-05-04 19:48 | 53.97820 | 12.90030 | 30145 ft | 445 kts | 346° |
| 2026-05-04 19:49 | 54.00994 | 12.89396 | 29494 ft | 440 kts | 345° |
| 2026-05-04 19:49 | 54.03985 | 12.88784 | 28876 ft | 435 kts | 346° |
| 2026-05-04 19:49 | 54.07002 | 12.88169 | 28267 ft | 429 kts | 346° |
| 2026-05-04 19:49 | 54.09937 | 12.87575 | 27668 ft | 423 kts | 346° |
| 2026-05-04 19:50 | 54.12833 | 12.86990 | 27068 ft | 418 kts | 346° |
| 2026-05-04 19:50 | 54.15705 | 12.86413 | 26522 ft | 412 kts | 346° |
| 2026-05-04 19:50 | 54.18537 | 12.85849 | 26018 ft | 404 kts | 346° |
| 2026-05-04 19:50 | 54.21318 | 12.85295 | 25514 ft | 397 kts | 346° |
| 2026-05-04 19:51 | 54.24002 | 12.84762 | 25020 ft | 390 kts | 346° |
| 2026-05-04 19:51 | 54.26720 | 12.84219 | 24520 ft | 400 kts | 346° |
| 2026-05-04 19:51 | 54.29592 | 12.83627 | 24040 ft | 428 kts | 347° |
| 2026-05-04 19:51 | 54.32599 | 12.83015 | 23567 ft | 452 kts | 347° |
| 2026-05-04 19:52 | 54.35768 | 12.82386 | 22974 ft | 457 kts | 348° |
| 2026-05-04 19:52 | 54.38917 | 12.81775 | 22394 ft | 454 kts | 348° |
| 2026-05-04 19:52 | 54.42049 | 12.81171 | 21763 ft | 445 kts | 348° |
| 2026-05-04 19:52 | 54.45039 | 12.80597 | 21147 ft | 435 kts | 348° |
| 2026-05-04 19:53 | 54.48061 | 12.80012 | 20511 ft | 426 kts | 348° |
| 2026-05-04 19:53 | 54.50963 | 12.79449 | 19888 ft | 418 kts | 348° |
| 2026-05-04 19:53 | 54.53789 | 12.78897 | 19334 ft | 409 kts | 348° |
| 2026-05-04 19:53 | 54.56618 | 12.78344 | 18795 ft | 400 kts | 347° |
| 2026-05-04 19:54 | 54.59349 | 12.77807 | 18270 ft | 392 kts | 347° |
| 2026-05-04 19:54 | 54.62066 | 12.77269 | 17737 ft | 385 kts | 347° |
| 2026-05-04 19:54 | 54.64696 | 12.76743 | 17214 ft | 379 kts | 347° |
| 2026-05-04 19:54 | 54.66452 | 12.76394 | 16855 ft | 376 kts | 347° |
| 2026-05-04 19:55 | 54.69859 | 12.75717 | 16218 ft | 368 kts | 347° |
| 2026-05-04 19:55 | 54.72369 | 12.75215 | 15736 ft | 362 kts | 347° |
| 2026-05-04 19:55 | 54.74854 | 12.74717 | 15235 ft | 357 kts | 347° |
| 2026-05-04 19:55 | 54.76503 | 12.74386 | 14899 ft | 354 kts | 348° |
| 2026-05-04 19:56 | 54.78951 | 12.73895 | 14395 ft | 350 kts | 348° |
| 2026-05-04 19:56 | 54.81351 | 12.73413 | 13895 ft | 346 kts | 348° |
| 2026-05-04 19:56 | 54.83725 | 12.72936 | 13395 ft | 342 kts | 348° |
| 2026-05-04 19:56 | 54.86067 | 12.72466 | 12895 ft | 338 kts | 348° |
| 2026-05-04 19:57 | 54.88401 | 12.71996 | 12391 ft | 333 kts | 348° |
| 2026-05-04 19:57 | 54.90678 | 12.71539 | 11894 ft | 329 kts | 348° |
| 2026-05-04 19:57 | 54.92964 | 12.71080 | 11402 ft | 324 kts | 348° |
| 2026-05-04 19:57 | 54.95166 | 12.70638 | 11027 ft | 316 kts | 348° |
| 2026-05-04 19:58 | 54.97316 | 12.70206 | 10700 ft | 306 kts | 348° |
| 2026-05-04 19:58 | 54.99397 | 12.69787 | 10374 ft | 297 kts | 348° |
| 2026-05-04 19:58 | 55.01409 | 12.69382 | 10081 ft | 287 kts | 348° |
| 2026-05-04 19:58 | 55.03329 | 12.68993 | 9812 ft | 282 kts | 348° |
| 2026-05-04 19:59 | 55.05269 | 12.68599 | 9606 ft | 280 kts | 348° |
| 2026-05-04 19:59 | 55.07259 | 12.68193 | 9400 ft | 279 kts | 348° |
| 2026-05-04 19:59 | 55.09178 | 12.67804 | 9201 ft | 278 kts | 349° |
| 2026-05-04 19:59 | 55.11081 | 12.67418 | 9016 ft | 277 kts | 349° |
| 2026-05-04 20:00 | 55.12994 | 12.67029 | 8774 ft | 276 kts | 349° |
| 2026-05-04 20:00 | 55.14917 | 12.66641 | 8521 ft | 274 kts | 349° |
| 2026-05-04 20:00 | 55.16811 | 12.66257 | 8270 ft | 273 kts | 349° |
| 2026-05-04 20:00 | 55.18684 | 12.65874 | 8021 ft | 272 kts | 349° |
| 2026-05-04 20:01 | 55.20551 | 12.65494 | 7771 ft | 271 kts | 349° |
| 2026-05-04 20:01 | 55.22441 | 12.65313 | 7519 ft | 271 kts | 357° |
| 2026-05-04 20:01 | 55.24321 | 12.65753 | 7268 ft | 275 kts | 9° |
| 2026-05-04 20:01 | 55.26156 | 12.66707 | 7019 ft | 275 kts | 13° |
| 2026-05-04 20:02 | 55.27965 | 12.67702 | 6770 ft | 274 kts | 13° |
| 2026-05-04 20:02 | 55.29783 | 12.68716 | 6518 ft | 272 kts | 13° |
| 2026-05-04 20:02 | 55.31584 | 12.69727 | 6267 ft | 271 kts | 13° |
| 2026-05-04 20:02 | 55.33381 | 12.70743 | 6016 ft | 269 kts | 13° |
| 2026-05-04 20:03 | 55.35141 | 12.71743 | 5768 ft | 268 kts | 13° |
| 2026-05-04 20:03 | 55.36921 | 12.72760 | 5517 ft | 267 kts | 14° |
| 2026-05-04 20:03 | 55.38669 | 12.73760 | 5269 ft | 266 kts | 14° |
| 2026-05-04 20:03 | 55.40442 | 12.74774 | 5016 ft | 264 kts | 14° |
| 2026-05-04 20:04 | 55.42187 | 12.75771 | 4767 ft | 263 kts | 14° |
| 2026-05-04 20:04 | 55.43927 | 12.76767 | 4518 ft | 262 kts | 14° |
| 2026-05-04 20:04 | 55.45657 | 12.77760 | 4268 ft | 261 kts | 14° |
| 2026-05-04 20:04 | 55.47372 | 12.78746 | 4066 ft | 259 kts | 14° |
| 2026-05-04 20:05 | 55.49079 | 12.79728 | 4005 ft | 259 kts | 14° |
| 2026-05-04 20:05 | 55.50793 | 12.80714 | 3991 ft | 259 kts | 14° |
| 2026-05-04 20:05 | 55.52512 | 12.81705 | 3988 ft | 259 kts | 14° |
| 2026-05-04 20:05 | 55.54205 | 12.82683 | 3981 ft | 248 kts | 14° |
| 2026-05-04 20:06 | 55.55782 | 12.83657 | 3979 ft | 235 kts | 17° |
| 2026-05-04 20:06 | 55.57298 | 12.84720 | 3984 ft | 232 kts | 17° |
| 2026-05-04 20:06 | 55.58788 | 12.85782 | 3985 ft | 231 kts | 18° |
| 2026-05-04 20:06 | 55.60266 | 12.86839 | 3986 ft | 231 kts | 18° |
| 2026-05-04 20:07 | 55.61727 | 12.88065 | 3984 ft | 233 kts | 25° |
| 2026-05-04 20:07 | 55.63117 | 12.89577 | 3986 ft | 234 kts | 27° |
| 2026-05-04 20:07 | 55.64492 | 12.91108 | 3984 ft | 234 kts | 27° |
| 2026-05-04 20:07 | 55.65880 | 12.92657 | 3983 ft | 234 kts | 27° |
| 2026-05-04 20:08 | 55.67255 | 12.94191 | 3981 ft | 234 kts | 27° |
| 2026-05-04 20:08 | 55.68632 | 12.95728 | 3980 ft | 234 kts | 27° |
| 2026-05-04 20:08 | 55.69962 | 12.97223 | 3969 ft | 220 kts | 27° |
| 2026-05-04 20:08 | 55.71249 | 12.98682 | 3973 ft | 216 kts | 27° |
| 2026-05-04 20:09 | 55.72506 | 13.00100 | 3973 ft | 214 kts | 24° |
| 2026-05-04 20:09 | 55.73878 | 13.00858 | 3986 ft | 206 kts | 4° |
| 2026-05-04 20:09 | 55.75308 | 13.01206 | 3975 ft | 206 kts | 2° |
| 2026-05-04 20:09 | 55.76723 | 13.01536 | 3971 ft | 205 kts | 0° |
| 2026-05-04 20:10 | 55.78082 | 13.01058 | 3969 ft | 196 kts | 326° |
| 2026-05-04 20:10 | 55.78948 | 12.99291 | 3973 ft | 192 kts | 290° |
| 2026-05-04 20:10 | 55.79004 | 12.96956 | 3980 ft | 195 kts | 258° |
| 2026-05-04 20:10 | 55.78559 | 12.94671 | 4005 ft | 196 kts | 252° |
| 2026-05-04 20:11 | 55.78075 | 12.92425 | 3985 ft | 195 kts | 251° |
| 2026-05-04 20:11 | 55.77291 | 12.90404 | 3809 ft | 201 kts | 233° |
| 2026-05-04 20:11 | 55.76322 | 12.88590 | 3548 ft | 199 kts | 230° |
| 2026-05-04 20:11 | 55.75354 | 12.86896 | 3294 ft | 191 kts | 229° |
| 2026-05-04 20:12 | 55.74445 | 12.85386 | 3061 ft | 174 kts | 228° |
| 2026-05-04 20:12 | 55.73551 | 12.83933 | 2834 ft | 171 kts | 227° |
| 2026-05-04 20:12 | 55.72678 | 12.82545 | 2603 ft | 158 kts | 227° |
| 2026-05-04 20:12 | 55.71908 | 12.81333 | 2381 ft | 145 kts | 227° |
| 2026-05-04 20:13 | 55.71133 | 12.80108 | 2238 ft | 150 kts | 227° |
| 2026-05-04 20:13 | 55.70351 | 12.78888 | 2043 ft | 150 kts | 226° |
| 2026-05-04 20:13 | 55.69570 | 12.77670 | 1845 ft | 150 kts | 226° |
| 2026-05-04 20:13 | 55.68788 | 12.76454 | 1648 ft | 150 kts | 225° |
| 2026-05-04 20:14 | 55.68007 | 12.75240 | 1451 ft | 150 kts | 225° |
| 2026-05-04 20:14 | 55.67212 | 12.73996 | 1252 ft | 151 kts | 223° |
| 2026-05-04 20:14 | 55.66429 | 12.72789 | 1046 ft | 143 kts | 223° |
| 2026-05-04 20:14 | 55.65713 | 12.71680 | 856 ft | 134 kts | 223° |
| 2026-05-04 20:15 | 55.65011 | 12.70589 | 688 ft | 133 kts | 223° |
| 2026-05-04 20:15 | 55.64318 | 12.69515 | 521 ft | 132 kts | 223° |
| 2026-05-04 20:15 | 55.63624 | 12.68438 | 347 ft | 132 kts | 223° |
| 2026-05-04 20:15 | 55.62961 | 12.67410 | 179 ft | 131 kts | 223° |
| 2026-05-04 20:16 | 55.62262 | 12.66328 | 32 ft | 120 kts | 223° |
| 2026-05-04 20:16 | 55.61860 | 12.65685 | 32 ft | 43 kts | 220° |
| 2026-05-04 20:16 | 55.61673 | 12.65391 | 32 ft | 33 kts | 221° |
| 2026-05-04 20:16 | 55.61600 | 12.65166 | 32 ft | 16 kts | 301° |
| 2026-05-04 20:17 | 55.61643 | 12.64987 | 32 ft | 17 kts | 290° |
| 2026-05-04 20:17 | 55.61702 | 12.64852 | 32 ft | 6 kts | 340° |
| 2026-05-04 20:17 | 55.61745 | 12.64824 | 32 ft | 9 kts | 340° |
| 2026-05-04 20:17 | 55.61827 | 12.64782 | 32 ft | 16 kts | 2° |
| 2026-05-04 20:18 | 55.61945 | 12.64883 | 32 ft | 19 kts | 27° |
| 2026-05-04 20:18 | 55.62045 | 12.64993 | 32 ft | 13 kts | 32° |
| 2026-05-04 20:18 | 55.62074 | 12.65028 | 32 ft | 0 kts | 34° |
| 2026-05-04 20:18 | 55.62075 | 12.65028 | 32 ft | 0 kts | 34° |
| 2026-05-04 20:19 | 55.62077 | 12.65031 | 32 ft | 1 kts | 34° |
| 2026-05-04 20:19 | 55.62078 | 12.65033 | 32 ft | 0 kts | 34° |
| 2026-05-04 20:19 | 55.62090 | 12.65046 | 32 ft | 10 kts | 34° |
| 2026-05-04 20:20 | 55.62195 | 12.65173 | 32 ft | 21 kts | 26° |
| 2026-05-04 20:20 | 55.62280 | 12.65086 | 32 ft | 18 kts | 301° |
| 2026-05-04 20:20 | 55.62353 | 12.64871 | 32 ft | 17 kts | 303° |
| 2026-05-04 20:20 | 55.62416 | 12.64705 | 32 ft | 16 kts | 300° |
| 2026-05-04 20:21 | 55.62449 | 12.64596 | 32 ft | 9 kts | 297° |
| 2026-05-04 20:21 | 55.62478 | 12.64496 | 32 ft | 9 kts | 297° |
| 2026-05-04 20:21 | 55.62540 | 12.64296 | 32 ft | 11 kts | 303° |
| 2026-05-04 20:22 | 55.62587 | 12.64197 | 32 ft | 11 kts | 318° |
| 2026-05-04 20:22 | 55.62651 | 12.64181 | 32 ft | 9 kts | 38° |
| 2026-05-04 20:22 | 55.62689 | 12.64257 | 32 ft | 6 kts | 27° |
| 2026-05-04 20:22 | 55.62696 | 12.64261 | 32 ft | 0 kts | 14° |